createdAt,value
2023-04-07T00:08:07.637Z,0.1
2023-04-07T00:20:07.627Z,0.1
2023-04-07T00:32:07.794Z,0.2
2023-04-07T00:44:07.733Z,0.2
2023-04-07T00:56:07.678Z,0.2
2023-04-07T01:08:07.858Z,0.3
2023-04-07T01:20:07.774Z,0.3
2023-04-07T01:32:07.834Z,0.3
2023-04-07T01:44:07.700Z,0.3
2023-04-07T01:56:07.878Z,0.3
2023-04-07T02:08:07.815Z,0.4
2023-04-07T02:20:07.796Z,0.4
2023-04-07T02:32:07.967Z,0.4
2023-04-07T02:44:07.911Z,0.4
2023-04-07T02:56:07.836Z,0.4
2023-04-07T03:08:07.906Z,0.5
2023-04-07T03:20:07.821Z,0.5
2023-04-07T03:32:08.089Z,0.5
2023-04-07T03:44:07.987Z,0.5
2023-04-07T03:56:07.943Z,0.5
2023-04-07T04:08:07.867Z,0.6
2023-04-07T04:20:08.048Z,0.6
2023-04-07T04:32:08.019Z,0.6
2023-04-07T04:44:08.173Z,0.6
2023-04-07T04:56:07.916Z,0.6
2023-04-07T05:08:08.073Z,0.7
2023-04-07T05:20:08.001Z,0.7
2023-04-07T05:32:08.063Z,0.8
2023-04-07T05:44:08.127Z,0.8
2023-04-07T05:56:08.112Z,0.8
2023-04-07T06:08:08.034Z,0.8
2023-04-07T06:20:08.017Z,0.8
2023-04-07T06:32:08.185Z,0.9
2023-04-07T06:44:09.575Z,0.9
2023-04-07T06:56:08.075Z,0.9
2023-04-07T07:08:08.042Z,0.9
2023-04-07T07:20:08.169Z,0.9
2023-04-07T07:32:08.179Z,1
2023-04-07T07:44:08.200Z,1
2023-04-07T07:56:08.074Z,1
2023-04-07T08:08:08.226Z,1
2023-04-07T08:20:08.180Z,1
2023-04-07T08:32:08.141Z,1.1
2023-04-07T08:44:08.337Z,1.1
2023-04-07T08:56:08.243Z,1.1
2023-04-07T09:08:08.303Z,1.1
2023-04-07T09:20:08.226Z,1.1
2023-04-07T09:32:08.452Z,1.2
2023-04-07T09:44:08.294Z,1.2
2023-04-07T09:56:08.277Z,1.2
2023-04-07T10:08:08.260Z,1.2
2023-04-07T10:20:08.388Z,1.2
2023-04-07T10:32:08.308Z,1.3
2023-04-07T10:44:08.305Z,1.3
2023-04-07T10:56:08.740Z,1.3
2023-04-07T11:08:08.472Z,1.3
2023-04-07T11:20:08.368Z,1.3
2023-04-07T11:32:08.581Z,1.4
2023-04-07T11:44:08.486Z,1.4
2023-04-07T11:56:08.456Z,1.4
2023-04-07T12:08:08.436Z,1.4
2023-04-07T12:20:08.369Z,1.4
2023-04-07T12:32:08.542Z,1.5
2023-04-07T12:44:08.480Z,1.5
2023-04-07T12:56:08.419Z,1.5
2023-04-07T13:08:08.376Z,1.5
2023-04-07T13:20:08.509Z,1.5
2023-04-07T13:32:08.493Z,1.6
2023-04-07T13:44:08.467Z,1.6
2023-04-07T13:56:08.638Z,1.6
2023-04-07T14:08:08.540Z,1.6
2023-04-07T14:20:08.556Z,1.6
2023-04-07T14:32:08.464Z,1.7
2023-04-07T14:44:08.667Z,1.7
2023-04-07T14:56:08.593Z,1.7
2023-04-07T15:08:08.607Z,1.7
2023-04-07T15:20:08.530Z,1.7
2023-04-07T15:32:09.074Z,1.8
2023-04-07T15:44:10.334Z,1.8
2023-04-07T15:56:08.727Z,1.8
2023-04-07T16:08:09.056Z,1.8
2023-04-07T16:20:08.741Z,1.8
2023-04-07T16:32:09.503Z,1.9
2023-04-07T16:44:08.649Z,1.9
2023-04-07T16:56:08.805Z,1.9
2023-04-07T17:08:08.761Z,2
2023-04-07T17:20:08.715Z,2
2023-04-07T17:32:08.643Z,2
2023-04-07T17:44:08.803Z,2
2023-04-07T17:56:08.777Z,2
2023-04-07T18:08:08.692Z,2.1
2023-04-07T18:20:08.726Z,2.1
2023-04-07T18:32:08.814Z,2.2
2023-04-07T18:44:08.822Z,2.2
2023-04-07T18:56:08.753Z,2.2
2023-04-07T19:08:08.929Z,2.3
2023-04-07T19:20:08.896Z,2.3
2023-04-07T19:32:08.830Z,2.3
2023-04-07T19:44:08.773Z,2.3
2023-04-07T19:56:08.956Z,2.3
2023-04-07T20:08:08.926Z,2.4
2023-04-07T20:20:08.981Z,2.4
2023-04-07T20:32:09.393Z,2.5
2023-04-07T20:44:09.051Z,2.5
2023-04-07T20:56:08.988Z,2.5
2023-04-07T21:08:09.103Z,2.5
2023-04-07T21:20:08.991Z,2.5
2023-04-07T21:32:09.085Z,2.6
2023-04-07T21:44:08.948Z,2.6
2023-04-07T21:56:08.943Z,2.6
2023-04-07T22:08:09.070Z,2.7
2023-04-07T22:20:09.058Z,2.7
2023-04-07T22:32:08.973Z,2.8
2023-04-07T22:44:08.956Z,2.8
2023-04-07T22:56:09.127Z,2.8
2023-04-07T23:08:09.079Z,0
2023-04-07T23:20:08.996Z,0
2023-04-07T23:32:09.068Z,0.1
2023-04-07T23:44:09.121Z,0.1
2023-04-07T23:56:09.122Z,0.1
